Latest Coastal Weather Observations for Moorabbin Airport

IDV60701

Issued at 3:31 am EDT Friday 22 November 2019 (issued every 10 minutes, with the page automatically refreshed every 10 minutes)

About coastal observations | Map of coastal stations | Coastal observations for VIC | Marine services | Other Formats
Station Details ID: 086077 Name: MOORABBIN AIRPORT Lat: -37.98 Lon: 145.10 Height: 12.1 m
Data from the previous 72 hours. | See also: Recent months at Moorabbin Airport
Date/Time
EDT
Wind Sea
Height
m
Swell Vis
km
Cloud Weather Temp
°C
Press
hPa
Rain since
9am
mm
Dir  Spd
kts
Gust
kts
Height
m
Period
s
Dir
22/03:30am SSW 10 14 - - - - 10 Clear - 13.5 1013.7 0.0
22/03:00am SSW 10 16 - - - - 10 Partly cloudy - 13.7 1013.7 0.0
22/02:30am SW 9 13 - - - - 10 Partly cloudy - 14.4 1013.5 0.0
22/02:00am SW 9 13 - - - - 10 Partly cloudy - 14.2 1013.7 0.0
22/01:30am SSW 7 9 - - - - 10 Partly cloudy - 14.5 1014.2 0.0
22/01:00am SSW 9 11 - - - - 10 Partly cloudy - 14.5 1014.7 0.0
22/12:30am SSW 9 13 - - - - 10 Partly cloudy - 14.6 1014.9 0.0
22/12:00am SSW 8 12 - - - - 10 Cloudy - 14.6 1015.0 0.0
 
Date/Time
EDT
Wind Sea
Height
m
Swell Vis
km
Cloud Weather Temp
°C
Press
hPa
Rain since
9am
mm
Dir  Spd
kts
Gust
kts
Height
m
Period
s
Dir
21/11:30pm SSW 11 16 - - - - 10 Partly cloudy - 14.6 1014.3 0.0
21/11:00pm SSW 11 17 - - - - 10 Partly cloudy - 14.9 1013.8 0.0
21/10:30pm SSW 11 15 - - - - 10 Partly cloudy - 14.9 1013.4 0.0
21/10:00pm SSW 14 19 - - - - 10 Partly cloudy - 15.1 1012.9 0.0
21/09:30pm SSW 12 16 - - - - 10 - - 15.0 1012.6 0.0
21/09:00pm SSW 13 18 - - - - 10 Mostly cloudy - 15.1 1011.3 0.0
21/08:30pm SSW 10 15 - - - - 10 - - 15.5 1012.4 0.0
21/08:00pm S 11 16 - - - - 10 - - 15.7 1010.2 0.0
21/07:30pm S 7 10 - - - - 10 - - 15.8 1010.8 0.0
21/07:00pm S 8 11 - - - - 10 - - 16.1 1010.1 0.0
21/06:30pm S 9 14 - - - - 10 Cloudy - 15.7 1010.4 0.0
21/06:00pm SSW 11 18 - - - - 10 Cloudy - 16.0 1010.3 0.0
21/05:53pm SSW 12 21 - - - - 10 Cloudy - 16.2 1009.6 0.0
21/05:40pm SSW 13 19 - - - - 8 Partly cloudy - 16.2 1008.8 0.0
21/05:30pm WSW 15 22 - - - - 10 Partly cloudy - 16.9 1008.9 0.0
21/05:00pm WSW 15 24 - - - - 10 - - 18.5 1007.6 0.0
21/04:57pm WSW 17 28 - - - - 10 - - 18.5 1007.5 0.0
21/04:30pm W 23 35 - - - - 10 - - 19.1 1005.5 0.0
21/04:29pm W 23 35 - - - - 10 - - 19.1 1005.4 0.0
21/04:00pm WSW 23 36 - - - - 10 - - 21.6 1003.4 0.0
21/03:40pm WSW 24 43 - - - - 10 Partly cloudy - 22.9 1002.8 0.0
21/03:30pm WSW 27 48 - - - - 9 Partly cloudy - 22.8 1000.8 0.0
21/03:20pm WSW 23 39 - - - - 10 Partly cloudy - 23.8 1001.8 0.0
21/03:00pm W 25 41 - - - - 9 Mostly cloudy - 25.1 999.6 0.0
21/02:57pm W 24 41 - - - - 10 - - 25.1 999.7 0.0
21/02:46pm WNW 26 43 - - - - 10 - - 30.3 998.8 0.0
21/02:44pm NW 27 43 - - - - 10 - - 34.5 998.6 0.0
21/02:30pm NNW 25 50 - - - - 10 - - 40.2 996.6 0.0
21/02:19pm N 24 43 - - - - 10 - - 40.5 996.6 0.0
21/02:00pm N 26 37 - - - - 10 - - 39.0 996.9 0.0
21/01:31pm N 26 36 - - - - 10 - - 38.9 997.9 0.0
21/01:30pm N 27 36 - - - - 10 - - 39.1 997.8 0.0
21/01:07pm N 25 36 - - - - 10 - - 38.1 998.9 0.0
21/01:00pm N 28 36 - - - - 10 - - 38.0 999.0 0.0
21/12:30pm N 27 40 - - - - 10 - - 37.4 999.3 0.0
21/12:03pm N 28 40 - - - - 10 - - 37.3 999.9 0.0
21/12:00pm N 29 38 - - - - 10 Mostly clear - 37.6 1000.1 0.0
21/11:47am N 27 45 - - - - 10 - - 37.0 1000.2 0.0
21/11:45am N 25 44 - - - - 10 - - 37.0 1000.0 0.0
21/11:43am N 24 40 - - - - 10 - - 37.5 1000.3 0.0
21/11:42am N 25 38 - - - - 10 - - 37.8 1000.4 0.0
21/11:30am N 31 45 - - - - 10 - - 36.8 999.9 0.0
21/11:00am N 28 39 - - - - 10 - - 36.6 1000.7 0.0
21/10:36am N 27 37 - - - - 10 - - 35.9 1001.0 0.0
21/10:30am N 28 37 - - - - 10 - - 35.5 1001.0 0.0
21/10:00am N 33 44 - - - - 10 - - 35.1 1000.8 0.0
21/09:30am N 27 37 - - - - 10 - - 34.4 1001.1 0.0
21/09:07am N 27 38 - - - - 10 - - 33.9 1001.4 0.0
21/09:00am N 26 34 - - - - 10 - - 33.7 1001.5 0.0
21/08:31am N 22 33 - - - - 10 - - 33.0 1001.8 0.0
21/08:30am N 21 30 - - - - 10 - - 32.9 1002.0 0.0
21/08:10am N 19 29 - - - - 10 - - 31.5 1002.5 0.0
21/08:00am N 21 28 - - - - 10 - - 31.1 1002.4 0.0
21/07:30am N 21 29 - - - - 10 - - 30.2 1002.2 0.0
21/07:06am N 23 34 - - - - 10 - - 29.7 1002.1 0.0
21/07:00am N 22 28 - - - - 10 - - 29.3 1002.2 0.0
21/06:30am N 21 30 - - - - 10 - - 29.0 1002.2 0.0
21/06:00am N 20 29 - - - - 10 - - 29.3 1002.0 0.0
21/05:56am N 20 29 - - - - 10 - - 29.5 1002.0 0.0
21/05:30am N 13 19 - - - - 10 - - 28.2 1002.0 0.0
21/05:00am N 12 15 - - - - 10 - - 26.6 1002.1 0.0
21/04:30am NNE 15 19 - - - - 10 - - 28.1 1002.3 0.0
21/04:00am N 13 17 - - - - 10 - - 27.2 1002.8 0.0
21/03:30am N 12 16 - - - - 10 - - 27.0 1003.2 0.0
21/03:00am N 15 17 - - - - 10 Mostly cloudy - 28.2 1003.2 0.0
21/02:30am N 15 19 - - - - 10 - - 28.8 1003.3 0.0
21/02:00am N 17 22 - - - - 10 - - 28.9 1003.5 0.0
21/01:30am N 17 25 - - - - 10 - - 29.0 1003.8 0.0
21/01:00am N 16 20 - - - - 10 - - 28.9 1004.1 0.0
21/12:30am NNE 13 20 - - - - 10 - - 28.5 1004.6 0.0
21/12:00am NNE 13 16 - - - - 10 Cloudy - 28.8 1004.7 0.0
 
Date/Time
EDT
Wind Sea
Height
m
Swell Vis
km
Cloud Weather Temp
°C
Press
hPa
Rain since
9am
mm
Dir  Spd
kts
Gust
kts
Height
m
Period
s
Dir
20/11:30pm NNE 12 15 - - - - 10 - - 28.1 1005.0 0.0
20/11:00pm NNE 14 18 - - - - 10 - - 28.6 1005.3 0.0
20/10:30pm NNE 13 17 - - - - 10 - - 28.7 1005.5 0.0
20/10:00pm NNE 13 16 - - - - 10 - - 28.4 1005.8 0.0
20/09:30pm N 13 16 - - - - 10 - - 28.7 1005.8 0.0
20/09:00pm N 11 15 - - - - 10 - - 28.8 1005.9 0.0
20/08:30pm N 11 14 - - - - 10 - - 29.3 1006.1 0.0
20/08:00pm NNE 10 13 - - - - 10 - - 30.1 1006.1 0.0
20/07:30pm NNE 12 17 - - - - 10 - - 31.7 1006.4 0.0
20/07:00pm NNE 10 13 - - - - 10 - - 32.9 1006.4 0.0
20/06:30pm N 12 17 - - - - 10 - - 33.8 1006.4 0.0
20/06:00pm NE 12 16 - - - - 10 - - 33.6 1006.7 0.0
20/05:30pm NNE 11 15 - - - - 10 - - 33.9 1007.0 0.0
20/05:00pm NNE 11 15 - - - - 10 - - 33.4 1007.3 0.0
20/04:30pm NE 11 15 - - - - 10 - - 33.3 1007.7 0.0
20/04:00pm ENE 10 16 - - - - 10 - - 32.4 1008.4 0.0
20/03:30pm ENE 9 16 - - - - 10 - - 31.9 1009.0 0.0
20/03:00pm ENE 8 11 - - - - 10 - - 31.1 1009.8 0.0
20/02:30pm SE 4 7 - - - - 10 - - 29.8 1010.4 0.0
20/02:00pm SSW 7 9 - - - - 10 - - 27.1 1010.8 0.0
20/01:30pm SSW 6 9 - - - - 10 - - 26.4 1011.5 0.0
20/01:00pm SSW 8 10 - - - - 10 - - 22.0 1012.0 0.0
20/12:30pm SW 9 11 - - - - 10 - - 21.1 1012.8 0.0
20/12:00pm SW 5 7 - - - - 10 Partly cloudy - 21.6 1012.9 0.0
20/11:30am NW 3 5 - - - - 10 - - 21.5 1013.5 0.0
20/11:00am NNE 5 8 - - - - 10 - - 19.8 1013.1 0.0
20/10:30am NE 4 7 - - - - 10 - - 17.8 1013.3 0.0
20/10:00am E 3 6 - - - - 10 - - 16.5 1013.8 0.0
20/09:30am SSW 4 8 - - - - 10 - - 15.1 1014.4 0.0
20/09:07am SSE 4 7 - - - - 10 Partly cloudy - 14.1 1014.2 0.0
20/09:00am SE 4 6 - - - - 10 Mostly clear - 14.4 1014.1 0.0
20/08:30am NE 4 6 - - - - 10 Cloudy - 12.9 1014.0 0.0
20/08:00am NNE 6 9 - - - - 10 Partly cloudy - 12.0 1013.9 0.0
20/07:50am NNE 6 9 - - - - 10 Partly cloudy - 11.6 1013.9 0.0
20/07:30am NNW 5 6 - - - - 10 - - 11.3 1014.1 0.0
20/07:00am ESE 4 4 - - - - 10 - - 10.4 1013.9 0.0
20/06:30am ENE 4 4 - - - - - - - 9.0 1013.9 0.0
20/06:10am NNE 1 5 - - - - - Partly cloudy - 8.8 1014.2 0.0
20/06:00am ENE 1 3 - - - - - Partly cloudy - 8.4 1014.2 0.0
20/05:30am ENE 4 5 - - - - - Cloudy - 8.8 1014.1 0.0
20/05:17am E 3 5 - - - - - Partly cloudy - 8.4 1014.1 0.0
20/05:00am E 3 4 - - - - - - - 7.8 1014.4 0.0
20/04:30am SE 4 5 - - - - - - - 8.2 1014.6 0.0
20/04:00am ESE 4 6 - - - - - - - 8.0 1014.8 0.0
20/03:30am ESE 5 6 - - - - - - - 8.2 1014.6 0.0
20/03:00am SE 4 6 - - - - - - - 8.0 1015.4 0.0
20/02:30am ESE 3 4 - - - - - - - 8.4 1015.4 0.0
20/02:00am ESE 3 5 - - - - - - - 8.9 1015.8 0.0
20/01:30am SE 4 5 - - - - - - - 8.8 1016.2 0.0
20/01:00am SSE 4 5 - - - - 10 - - 9.4 1016.7 0.0
20/12:30am SE 5 7 - - - - 10 Partly cloudy - 10.0 1016.7 0.0
20/12:00am ESE 3 4 - - - - 10 Mostly cloudy - 10.2 1016.8 0.0
 
Date/Time
EDT
Wind Sea
Height
m
Swell Vis
km
Cloud Weather Temp
°C
Press
hPa
Rain since
9am
mm
Dir  Spd
kts
Gust
kts
Height
m
Period
s
Dir
19/11:30pm SE 4 5 - - - - 10 - - 10.6 1016.8 0.0
19/11:00pm SSE 4 6 - - - - 10 - - 10.8 1016.6 0.0
19/10:30pm SE 7 11 - - - - 10 - - 11.4 1016.2 0.0
19/10:00pm SE 8 9 - - - - 10 - - 11.9 1016.1 0.0
19/09:30pm SE 8 11 - - - - 10 - - 12.4 1016.0 0.0
19/09:00pm SE 9 11 - - - - 10 - - 12.8 1015.9 0.0
19/08:30pm SE 10 14 - - - - 10 - - 13.7 1016.1 0.0
19/08:00pm SE 11 15 - - - - 10 - - 14.7 1015.7 0.0
19/07:30pm SSE 11 13 - - - - 10 Partly cloudy - 15.8 1015.5 0.0
19/07:00pm SE 11 14 - - - - 10 Partly cloudy - 16.5 1014.8 0.0
19/06:30pm SSW 10 14 - - - - 10 Partly cloudy - 17.1 1014.6 0.0
19/06:00pm SSW 10 13 - - - - 10 Mostly clear - 17.5 1014.6 0.0
19/05:30pm SSW 10 13 - - - - 10 - - 17.4 1014.5 0.0
19/05:00pm S 11 15 - - - - 10 - - 17.4 1014.5 0.0
19/04:30pm SSW 13 17 - - - - 10 - - 17.1 1014.4 0.0
19/04:00pm SSW 13 19 - - - - 10 - - 16.7 1014.6 0.0
19/03:30pm SW 14 18 - - - - 10 Partly cloudy - 16.7 1014.6 0.0
19/03:00pm SSW 14 17 - - - - 10 - - 16.9 1014.4 0.0
19/02:30pm SSW 14 19 - - - - 10 - - 16.4 1014.4 0.0
19/02:00pm SSW 13 17 - - - - 10 - - 16.3 1014.4 0.0
19/01:30pm SSW 11 14 - - - - 10 - - 16.8 1014.3 0.0
19/01:00pm SW 10 13 - - - - 10 - - 16.9 1014.4 0.0
19/12:30pm SW 9 14 - - - - 10 - - 16.9 1014.6 0.0
19/12:00pm SW 8 12 - - - - 10 - - 17.9 1014.8 0.0
19/11:30am SW 9 14 - - - - 10 Partly cloudy - 17.0 1014.6 0.0
19/11:00am SSW 10 14 - - - - 10 Partly cloudy - 16.8 1014.3 0.0
19/10:30am SSW 10 14 - - - - 10 Cloudy - 15.9 1014.2 0.0
19/10:00am SSW 10 13 - - - - 10 Partly cloudy - 15.9 1013.9 0.0
19/09:30am S 9 12 - - - - 10 Partly cloudy - 15.3 1014.1 0.0
19/09:00am SSW 7 11 - - - - 10 Cloudy - 15.3 1013.8 0.0
19/08:30am S 6 8 - - - - 10 Cloudy - 14.6 1013.4 0.0
19/08:00am SE 5 6 - - - - 10 Partly cloudy - 13.9 1012.9 0.0
19/07:30am ESE 2 3 - - - - 10 Partly cloudy - 13.5 1012.6 0.0
19/07:00am SE 3 4 - - - - - Partly cloudy - 11.8 1012.4 0.0
19/06:30am CALM 0 0 - - - - - - - 10.4 1012.3 0.0
19/06:00am CALM 0 0 - - - - - - - 10.0 1011.9 0.0
19/05:30am N 3 3 - - - - - - - 10.7 1011.5 0.0
19/05:00am N 1 3 - - - - - - - 10.4 1011.5 0.0
19/04:30am N 2 4 - - - - - - - 10.9 1011.2 0.0
19/04:00am CALM 0 0 - - - - - - - 10.5 1011.2 0.0

Other formats

Comma delimited format used in spreadsheet applications
http://www.bom.gov.au/fwo/IDV60701/IDV60701.94870.axf

JavaScript Object Notation format (JSON) in row-major order
http://www.bom.gov.au/fwo/IDV60701/IDV60701.94870.json

Data quality

Most of these data are generated automatically and are frequently updated. Quality checks on data are not normally performed. It is possible for incorrect values to appear. Refer to information at About Latest Weather Observations and please check the disclaimer before using these data.